createdAt,value
2017-10-12T00:00:32.974Z,8.80
2017-10-12T00:03:00.282Z,7.57
2017-10-12T00:05:27.562Z,8.43
2017-10-12T00:07:54.876Z,9.63
2017-10-12T00:10:22.178Z,7.07
2017-10-12T00:12:49.514Z,8.83
2017-10-12T00:15:16.795Z,7.27
2017-10-12T00:17:44.059Z,6.80
2017-10-12T00:20:11.390Z,6.63
2017-10-12T00:22:38.679Z,7.87
2017-10-12T00:25:05.970Z,7.17
2017-10-12T00:27:33.297Z,6.60
2017-10-12T00:30:00.596Z,6.00
2017-10-12T00:32:27.922Z,6.03
2017-10-12T00:34:55.216Z,5.83
2017-10-12T00:37:22.479Z,6.00
2017-10-12T00:39:49.779Z,6.73
2017-10-12T00:42:17.070Z,7.67
2017-10-12T00:44:44.375Z,5.00
2017-10-12T00:47:11.662Z,6.00
2017-10-12T00:49:38.980Z,6.13
2017-10-12T00:52:06.256Z,5.57
2017-10-12T00:54:33.544Z,8.57
2017-10-12T00:57:00.858Z,6.63
2017-10-12T00:59:28.132Z,8.63
2017-10-12T01:01:55.417Z,7.40
2017-10-12T01:04:22.727Z,9.50
2017-10-12T01:06:50.372Z,9.20
2017-10-12T01:09:17.637Z,9.30
2017-10-12T01:11:44.902Z,9.50
2017-10-12T01:14:12.240Z,9.20
2017-10-12T01:16:39.527Z,8.60
2017-10-12T01:19:06.819Z,9.73
2017-10-12T01:21:34.462Z,8.67
2017-10-12T01:24:01.773Z,8.00
2017-10-12T01:26:29.076Z,9.50
2017-10-12T01:28:56.358Z,9.30
2017-10-12T01:31:23.695Z,7.83
2017-10-12T01:33:50.978Z,9.33
2017-10-12T01:36:18.278Z,9.17
2017-10-12T01:38:45.596Z,10.17
2017-10-12T01:41:12.890Z,9.20
2017-10-12T01:43:40.189Z,8.03
2017-10-12T01:46:07.482Z,9.13
2017-10-12T01:48:40.647Z,9.00
2017-10-12T01:51:07.950Z,9.43
2017-10-12T01:53:35.261Z,10.73
2017-10-12T01:56:02.537Z,8.57
2017-10-12T01:58:29.827Z,8.07
2017-10-12T02:00:57.139Z,7.23
2017-10-12T02:03:24.414Z,7.63
2017-10-12T02:05:51.728Z,7.27
2017-10-12T02:08:19.052Z,7.67
2017-10-12T02:10:46.331Z,9.30
2017-10-12T02:13:13.630Z,7.70
2017-10-12T02:15:40.942Z,7.80
2017-10-12T02:18:08.291Z,8.60
2017-10-12T02:20:35.591Z,7.50
2017-10-12T02:23:02.902Z,7.83
2017-10-12T02:25:30.179Z,7.73
2017-10-12T02:27:57.447Z,7.00
2017-10-12T02:30:24.755Z,6.80
2017-10-12T02:32:52.063Z,7.30
2017-10-12T02:35:19.379Z,7.83
2017-10-12T02:37:46.656Z,6.37
2017-10-12T02:40:13.987Z,6.37
2017-10-12T02:42:41.299Z,7.10
2017-10-12T02:45:08.572Z,6.67
2017-10-12T02:47:35.904Z,7.37
2017-10-12T02:50:03.175Z,7.13
2017-10-12T02:52:30.521Z,6.97
2017-10-12T02:54:57.834Z,7.70
2017-10-12T02:57:25.118Z,6.13
2017-10-12T02:59:52.451Z,6.47
2017-10-12T03:02:19.734Z,7.40
2017-10-12T03:04:47.032Z,7.90
2017-10-12T03:07:14.339Z,6.70
2017-10-12T03:09:41.623Z,6.77
2017-10-12T03:12:08.921Z,6.93
2017-10-12T03:14:36.203Z,7.63
2017-10-12T03:17:03.498Z,7.27
2017-10-12T03:19:30.795Z,7.43
2017-10-12T03:21:58.092Z,7.40
2017-10-12T03:24:25.362Z,7.13
2017-10-12T03:26:52.657Z,6.70
2017-10-12T03:29:19.978Z,6.60
2017-10-12T03:31:47.300Z,7.07
2017-10-12T03:34:14.595Z,6.13
2017-10-12T03:36:41.876Z,5.73
2017-10-12T03:39:09.195Z,5.50
2017-10-12T03:41:36.547Z,5.50
2017-10-12T03:44:04.559Z,4.80
2017-10-12T03:46:31.829Z,5.40
2017-10-12T03:48:59.135Z,5.13
2017-10-12T03:51:26.419Z,5.47
2017-10-12T03:53:53.711Z,5.20
2017-10-12T03:56:20.991Z,5.50
2017-10-12T03:58:48.280Z,4.30
2017-10-12T04:01:15.649Z,4.30
2017-10-12T04:03:42.922Z,4.00
2017-10-12T04:06:10.208Z,5.03
2017-10-12T04:08:37.527Z,5.10
2017-10-12T04:11:04.809Z,4.40
2017-10-12T04:13:32.088Z,4.00
2017-10-12T04:15:59.383Z,5.03
2017-10-12T04:18:26.677Z,4.30
2017-10-12T04:20:53.938Z,4.60
2017-10-12T04:23:21.273Z,4.60
2017-10-12T04:25:48.513Z,4.70
2017-10-12T04:28:15.832Z,4.17
2017-10-12T04:30:43.125Z,4.70
2017-10-12T04:33:10.447Z,4.40
2017-10-12T04:35:37.756Z,4.20
2017-10-12T04:38:05.922Z,4.67
2017-10-12T04:40:33.222Z,4.20
2017-10-12T04:43:00.524Z,4.40
2017-10-12T04:45:27.798Z,4.50
2017-10-12T04:47:55.099Z,4.30
2017-10-12T04:50:22.377Z,4.00
2017-10-12T04:52:49.671Z,4.60
2017-10-12T04:55:17.013Z,4.47
2017-10-12T04:57:44.325Z,4.90
2017-10-12T05:00:11.582Z,4.77
2017-10-12T05:02:38.871Z,4.93
2017-10-12T05:05:06.166Z,4.50
2017-10-12T05:07:33.472Z,4.70
2017-10-12T05:10:00.757Z,4.10
2017-10-12T05:12:28.039Z,5.13
2017-10-12T05:14:55.344Z,4.93
2017-10-12T05:17:22.616Z,3.90
2017-10-12T05:19:49.952Z,4.60
2017-10-12T05:22:17.262Z,4.57
2017-10-12T05:24:44.561Z,5.13
2017-10-12T05:27:11.864Z,4.93
2017-10-12T05:29:39.134Z,4.67
2017-10-12T05:32:06.454Z,5.07
2017-10-12T05:34:33.816Z,4.60
2017-10-12T05:37:01.069Z,4.63
2017-10-12T05:39:28.361Z,3.87
2017-10-12T05:41:55.697Z,4.77
2017-10-12T05:44:22.972Z,4.80
2017-10-12T05:46:50.262Z,4.93
2017-10-12T05:49:17.568Z,4.47
2017-10-12T05:51:44.840Z,4.10
2017-10-12T05:54:12.156Z,4.67
2017-10-12T05:56:39.412Z,4.97
2017-10-12T05:59:06.722Z,4.70
2017-10-12T06:01:33.999Z,4.90
2017-10-12T06:04:01.320Z,4.70
2017-10-12T06:06:28.580Z,4.33
2017-10-12T06:08:55.867Z,5.10
2017-10-12T06:11:23.197Z,5.03
2017-10-12T06:13:50.455Z,4.30
2017-10-12T06:16:17.738Z,4.87
2017-10-12T06:18:45.080Z,4.43
2017-10-12T06:21:12.410Z,4.93
2017-10-12T06:23:39.673Z,4.43
2017-10-12T06:26:06.940Z,5.17
2017-10-12T06:28:34.244Z,4.47
2017-10-12T06:31:01.519Z,4.10
2017-10-12T06:33:28.814Z,4.40
2017-10-12T06:35:56.140Z,4.33
2017-10-12T06:38:23.414Z,3.73
2017-10-12T06:40:50.722Z,3.83
2017-10-12T06:43:17.996Z,3.97
2017-10-12T06:45:45.262Z,4.07
2017-10-12T06:48:12.570Z,3.97
2017-10-12T06:50:39.854Z,3.30
2017-10-12T06:53:07.147Z,3.50
2017-10-12T06:55:34.446Z,3.80
2017-10-12T06:58:01.749Z,3.40
2017-10-12T07:00:29.019Z,3.83
2017-10-12T07:02:56.302Z,3.60
2017-10-12T07:05:23.587Z,3.70
2017-10-12T07:07:50.888Z,4.00
2017-10-12T07:10:18.189Z,3.23
2017-10-12T07:12:45.508Z,3.30
2017-10-12T07:15:12.835Z,3.60
2017-10-12T07:17:40.127Z,3.50
2017-10-12T07:20:07.440Z,2.60
2017-10-12T07:22:34.719Z,2.50
2017-10-12T07:25:02.088Z,3.10
2017-10-12T07:27:29.355Z,3.40
2017-10-12T07:29:56.652Z,3.37
2017-10-12T07:32:23.940Z,3.03
2017-10-12T07:34:51.197Z,3.10
2017-10-12T07:37:18.492Z,2.90
2017-10-12T07:39:45.800Z,2.60
2017-10-12T07:42:13.074Z,2.80
2017-10-12T07:44:40.362Z,3.47
2017-10-12T07:47:07.623Z,3.20
2017-10-12T07:49:34.902Z,3.20
2017-10-12T07:52:02.223Z,3.00
2017-10-12T07:54:29.483Z,3.40
2017-10-12T07:56:56.774Z,3.20
2017-10-12T07:59:24.030Z,3.80
2017-10-12T08:01:51.329Z,3.40
2017-10-12T08:04:18.588Z,3.40
2017-10-12T08:06:45.858Z,2.93
2017-10-12T08:09:13.143Z,3.00
2017-10-12T08:11:40.408Z,3.47
2017-10-12T08:14:07.720Z,2.80
2017-10-12T08:16:34.994Z,2.50
2017-10-12T08:19:02.264Z,2.83
2017-10-12T08:21:29.575Z,2.40
2017-10-12T08:23:56.836Z,2.27
2017-10-12T08:26:24.107Z,3.20
2017-10-12T08:28:51.407Z,2.63
2017-10-12T08:31:18.669Z,2.47
2017-10-12T08:33:45.963Z,2.37
2017-10-12T08:36:13.235Z,2.90
2017-10-12T08:38:40.499Z,2.60
2017-10-12T08:41:07.787Z,2.27
2017-10-12T08:43:35.087Z,2.53
2017-10-12T08:46:02.355Z,2.23
2017-10-12T08:48:29.615Z,2.80
2017-10-12T08:50:56.908Z,2.10
2017-10-12T08:53:24.170Z,2.20
2017-10-12T08:55:51.434Z,2.20
2017-10-12T08:58:18.727Z,2.13
2017-10-12T09:00:46.017Z,2.00
2017-10-12T09:03:13.300Z,2.30
2017-10-12T09:05:40.598Z,1.67
2017-10-12T09:08:07.944Z,1.80
2017-10-12T09:10:35.200Z,1.80
2017-10-12T09:13:02.469Z,1.70
2017-10-12T09:15:29.760Z,2.00
2017-10-12T09:17:57.023Z,1.93
2017-10-12T09:20:24.312Z,1.70
2017-10-12T09:22:51.608Z,1.63
2017-10-12T09:25:18.907Z,1.73
2017-10-12T09:27:46.175Z,1.80
2017-10-12T09:30:13.506Z,1.40
2017-10-12T09:32:40.779Z,1.80
2017-10-12T09:35:08.028Z,1.63
2017-10-12T09:37:35.318Z,1.63
2017-10-12T09:40:02.591Z,1.70
2017-10-12T09:42:29.881Z,1.60
2017-10-12T09:44:57.156Z,1.93
2017-10-12T09:47:24.439Z,1.80
2017-10-12T09:49:51.719Z,2.00
2017-10-12T09:52:19.013Z,1.63
2017-10-12T09:54:46.301Z,2.03
2017-10-12T09:57:13.573Z,1.80
2017-10-12T09:59:40.862Z,1.60
2017-10-12T10:02:08.123Z,1.67
2017-10-12T10:04:35.388Z,2.03
2017-10-12T10:07:03.019Z,2.30
2017-10-12T10:09:30.742Z,1.97
2017-10-12T10:11:58.000Z,2.03
2017-10-12T10:14:25.286Z,1.70
2017-10-12T10:16:52.552Z,1.73
2017-10-12T10:19:19.836Z,2.03
2017-10-12T10:21:47.093Z,1.70
2017-10-12T10:24:14.370Z,1.87
2017-10-12T10:26:41.655Z,2.07
2017-10-12T10:29:08.922Z,1.50
2017-10-12T10:31:36.251Z,2.20
2017-10-12T10:34:03.557Z,1.83
2017-10-12T10:36:30.844Z,1.50
2017-10-12T10:38:58.098Z,1.90
2017-10-12T10:41:25.391Z,1.60
2017-10-12T10:43:52.653Z,1.77
2017-10-12T10:46:19.925Z,1.10
2017-10-12T10:48:47.215Z,1.73
2017-10-12T10:51:14.472Z,2.07
2017-10-12T10:53:41.780Z,1.80
2017-10-12T10:56:09.055Z,2.17
2017-10-12T10:58:36.323Z,2.07
2017-10-12T11:01:03.594Z,1.90
2017-10-12T11:03:30.854Z,2.33
2017-10-12T11:05:58.145Z,1.87
2017-10-12T11:08:25.431Z,1.80
2017-10-12T11:10:52.692Z,2.10
2017-10-12T11:13:20.001Z,1.90
2017-10-12T11:15:47.255Z,1.77
2017-10-12T11:18:14.519Z,2.00
2017-10-12T11:20:41.803Z,2.20
2017-10-12T11:23:09.058Z,1.90
2017-10-12T11:25:36.351Z,1.70
2017-10-12T11:28:03.642Z,2.17
2017-10-12T11:30:30.922Z,1.80
2017-10-12T11:32:58.187Z,2.30
2017-10-12T11:35:25.473Z,1.90
2017-10-12T11:37:52.723Z,1.60
2017-10-12T11:40:20.003Z,2.00
2017-10-12T11:42:47.291Z,2.03
2017-10-12T11:45:14.548Z,2.13
2017-10-12T11:47:41.834Z,2.57
2017-10-12T11:50:09.131Z,2.37
2017-10-12T11:52:36.386Z,2.60
2017-10-12T11:55:03.666Z,2.07
2017-10-12T11:57:30.950Z,1.70
2017-10-12T11:59:58.238Z,2.10
2017-10-12T12:02:25.495Z,1.80
2017-10-12T12:04:52.782Z,2.50
2017-10-12T12:07:20.041Z,2.83
2017-10-12T12:09:47.336Z,1.93
2017-10-12T12:12:14.634Z,2.10
2017-10-12T12:14:41.898Z,1.97
2017-10-12T12:17:09.158Z,1.83
2017-10-12T12:19:36.444Z,2.20
2017-10-12T12:22:03.878Z,1.77
2017-10-12T12:24:31.140Z,1.87
2017-10-12T12:26:58.440Z,2.07
2017-10-12T12:29:25.705Z,2.10
2017-10-12T12:31:52.963Z,1.87
2017-10-12T12:34:20.247Z,1.87
2017-10-12T12:36:47.503Z,1.47
2017-10-12T12:39:14.799Z,2.00
2017-10-12T12:41:42.060Z,2.30
2017-10-12T12:44:09.326Z,2.20
2017-10-12T12:46:36.602Z,2.03
2017-10-12T12:49:03.867Z,2.43
2017-10-12T12:51:31.150Z,2.30
2017-10-12T12:53:58.409Z,2.03
2017-10-12T12:56:25.700Z,2.07
2017-10-12T12:58:52.996Z,1.73
2017-10-12T13:01:20.252Z,2.27
2017-10-12T13:03:47.515Z,2.00
2017-10-12T13:06:14.809Z,2.10
2017-10-12T13:08:42.076Z,2.47
2017-10-12T13:11:09.367Z,2.70
2017-10-12T13:13:36.715Z,2.00
2017-10-12T13:16:03.973Z,2.33
2017-10-12T13:18:31.267Z,2.47
2017-10-12T13:20:58.548Z,1.97
2017-10-12T13:23:26.177Z,2.30
2017-10-12T13:25:53.566Z,3.03
2017-10-12T13:28:20.872Z,1.87
2017-10-12T13:30:48.141Z,2.13
2017-10-12T13:33:15.405Z,2.10
2017-10-12T13:35:42.833Z,1.90
2017-10-12T13:38:10.127Z,2.13
2017-10-12T13:40:37.517Z,2.60
2017-10-12T13:43:04.807Z,2.10
2017-10-12T13:45:32.074Z,2.37
2017-10-12T13:47:59.366Z,1.80
2017-10-12T13:50:26.629Z,2.60
2017-10-12T13:52:54.175Z,1.80
2017-10-12T13:55:21.440Z,2.30
2017-10-12T13:57:48.723Z,1.93
2017-10-12T14:00:16.026Z,2.43
2017-10-12T14:02:43.293Z,2.53
2017-10-12T14:05:10.567Z,2.20
2017-10-12T14:07:37.884Z,2.40
2017-10-12T14:10:05.135Z,2.10
2017-10-12T14:12:32.407Z,2.40
2017-10-12T14:14:59.705Z,2.30
2017-10-12T14:17:26.975Z,2.50
2017-10-12T14:19:54.238Z,2.50
2017-10-12T14:22:21.532Z,2.20
2017-10-12T14:24:48.794Z,2.40
2017-10-12T14:27:16.063Z,2.30
2017-10-12T14:29:43.359Z,2.20
2017-10-12T14:32:10.638Z,2.40
2017-10-12T14:34:37.894Z,1.57
2017-10-12T14:37:05.183Z,2.20
2017-10-12T14:39:32.461Z,1.80
2017-10-12T14:41:59.831Z,2.10
2017-10-12T14:44:27.134Z,2.27
2017-10-12T14:46:54.393Z,2.13
2017-10-12T14:49:21.684Z,2.33
2017-10-12T14:51:48.956Z,2.30
2017-10-12T14:54:16.389Z,2.63
2017-10-12T14:56:43.654Z,2.20
2017-10-12T14:59:10.955Z,2.10
2017-10-12T15:01:38.237Z,1.90
2017-10-12T15:04:05.487Z,2.33
2017-10-12T15:06:32.777Z,2.00
2017-10-12T15:09:00.042Z,2.13
2017-10-12T15:11:27.339Z,1.90
2017-10-12T15:13:54.620Z,1.83
2017-10-12T15:16:21.919Z,1.83
2017-10-12T15:18:49.192Z,2.33
2017-10-12T15:21:16.457Z,2.00
2017-10-12T15:23:43.766Z,2.40
2017-10-12T15:26:11.055Z,2.17
2017-10-12T15:28:38.335Z,2.03
2017-10-12T15:31:05.603Z,2.20
2017-10-12T15:33:32.886Z,2.50
2017-10-12T15:36:00.193Z,2.07
2017-10-12T15:38:27.489Z,1.77
2017-10-12T15:40:54.752Z,1.93
2017-10-12T15:43:22.043Z,1.90
2017-10-12T15:45:49.358Z,1.83
2017-10-12T15:48:16.662Z,2.33
2017-10-12T15:50:43.935Z,2.30
2017-10-12T15:53:11.262Z,2.13
2017-10-12T15:55:38.567Z,2.00
2017-10-12T15:58:05.835Z,2.00
2017-10-12T16:00:33.097Z,2.83
2017-10-12T16:03:00.388Z,2.27
2017-10-12T16:05:27.659Z,2.20
2017-10-12T16:07:54.974Z,2.37
2017-10-12T16:10:22.227Z,2.10
2017-10-12T16:12:49.499Z,2.00
2017-10-12T16:15:16.790Z,2.27
2017-10-12T16:17:44.076Z,1.87
2017-10-12T16:20:11.383Z,2.30
2017-10-12T16:23:08.532Z,2.57
2017-10-12T16:25:05.936Z,2.60
2017-10-12T16:27:33.239Z,2.20
2017-10-12T16:32:27.795Z,2.03
2017-10-12T16:34:55.092Z,2.10
2017-10-12T16:37:22.362Z,2.47
2017-10-12T16:39:49.654Z,2.07
2017-10-12T16:42:16.998Z,2.30
2017-10-12T16:44:44.254Z,2.33
2017-10-12T16:47:11.523Z,2.30
2017-10-12T16:49:38.822Z,1.90
2017-10-12T16:52:06.122Z,2.17
2017-10-12T16:54:33.382Z,2.30
2017-10-12T16:57:00.669Z,2.90
2017-10-12T16:59:27.958Z,2.30
2017-10-12T17:01:55.260Z,2.10
2017-10-12T17:04:22.523Z,2.60
2017-10-12T17:06:49.835Z,2.53
2017-10-12T17:09:17.103Z,2.43
2017-10-12T17:11:44.395Z,1.70
2017-10-12T17:14:11.684Z,2.27
2017-10-12T17:16:38.999Z,2.30
2017-10-12T17:19:06.290Z,2.60
2017-10-12T17:21:33.591Z,2.33
2017-10-12T17:24:00.899Z,2.60
2017-10-12T17:26:28.209Z,2.53
2017-10-12T17:28:55.503Z,2.50
2017-10-12T17:31:22.772Z,2.40
2017-10-12T17:33:50.107Z,2.10
2017-10-12T17:36:17.381Z,2.63
2017-10-12T17:38:44.630Z,2.40
2017-10-12T17:41:11.932Z,2.87
2017-10-12T17:43:39.194Z,2.67
2017-10-12T17:46:06.507Z,2.40
2017-10-12T17:48:33.780Z,3.03
2017-10-12T17:51:01.062Z,2.23
2017-10-12T17:53:28.380Z,2.20
2017-10-12T17:55:55.654Z,2.90
2017-10-12T17:58:22.948Z,2.40
2017-10-12T18:00:50.211Z,2.70
2017-10-12T18:03:17.547Z,2.60
2017-10-12T18:05:44.798Z,2.80
2017-10-12T18:08:12.054Z,2.40
2017-10-12T18:10:39.345Z,2.20
2017-10-12T18:13:06.610Z,3.87
2017-10-12T18:15:33.868Z,2.20
2017-10-12T18:18:01.155Z,2.50
2017-10-12T18:20:28.419Z,3.27
2017-10-12T18:22:55.730Z,2.53
2017-10-12T18:25:23.002Z,3.30
2017-10-12T18:27:50.290Z,2.37
2017-10-12T18:30:17.563Z,2.57
2017-10-12T18:32:44.872Z,2.67
2017-10-12T18:35:12.146Z,1.77
2017-10-12T18:37:39.409Z,3.00
2017-10-12T18:40:06.698Z,3.20
2017-10-12T18:42:33.967Z,2.83
2017-10-12T18:45:01.286Z,2.90
2017-10-12T18:47:28.539Z,2.00
2017-10-12T18:52:23.114Z,2.40
2017-10-12T18:54:50.384Z,3.00
2017-10-12T18:57:17.646Z,2.40
2017-10-12T18:59:44.939Z,2.90
2017-10-12T19:02:12.203Z,2.70
2017-10-12T19:04:39.498Z,2.40
2017-10-12T19:07:06.786Z,2.40
2017-10-12T19:09:34.070Z,2.90
2017-10-12T19:12:01.340Z,2.63
2017-10-12T19:14:28.650Z,2.87
2017-10-12T19:16:55.906Z,2.33
2017-10-12T19:19:23.172Z,3.07
2017-10-12T19:21:50.471Z,3.00
2017-10-12T19:24:17.743Z,2.80
2017-10-12T19:26:45.019Z,3.20
2017-10-12T19:29:12.328Z,2.63
2017-10-12T19:31:39.590Z,3.70
2017-10-12T19:34:06.881Z,3.03
2017-10-12T19:36:34.180Z,3.00
2017-10-12T19:39:01.482Z,3.27
2017-10-12T19:41:28.783Z,3.20
2017-10-12T19:43:56.042Z,3.63
2017-10-12T19:46:23.361Z,2.80
2017-10-12T19:48:50.610Z,2.93
2017-10-12T19:53:45.203Z,2.83
2017-10-12T19:56:12.472Z,3.07
2017-10-12T20:01:07.099Z,3.23
2017-10-12T20:06:01.643Z,3.53
2017-10-12T20:08:28.935Z,3.43
2017-10-12T20:10:56.244Z,2.93
2017-10-12T20:13:23.503Z,3.30
2017-10-12T20:15:50.769Z,3.50
2017-10-12T20:18:18.047Z,3.07
2017-10-12T20:20:45.335Z,3.40
2017-10-12T20:23:12.679Z,3.10
2017-10-12T20:25:39.978Z,3.50
2017-10-12T20:28:07.268Z,3.50
2017-10-12T20:30:34.532Z,3.80
2017-10-12T20:33:01.824Z,3.57
2017-10-12T20:35:29.086Z,5.10
2017-10-12T20:37:56.378Z,3.23
2017-10-12T20:40:23.643Z,3.10
2017-10-12T20:42:50.927Z,3.90
2017-10-12T20:45:18.196Z,4.00
2017-10-12T20:47:45.499Z,3.40
2017-10-12T20:50:12.770Z,3.60
2017-10-12T20:52:40.028Z,3.50
2017-10-12T20:57:34.603Z,3.67
2017-10-12T21:00:01.872Z,3.40
2017-10-12T21:04:56.436Z,4.03
2017-10-12T21:07:23.720Z,3.50
2017-10-12T21:09:51.006Z,3.60
2017-10-12T21:12:18.271Z,3.67
2017-10-12T21:14:45.551Z,3.87
2017-10-12T21:17:12.820Z,5.30
2017-10-12T21:19:40.106Z,4.03
2017-10-12T21:22:07.407Z,3.90
2017-10-12T21:24:34.663Z,4.13
2017-10-12T21:27:01.923Z,4.60
2017-10-12T21:29:29.222Z,4.67
2017-10-12T21:31:56.498Z,4.87
2017-10-12T21:34:23.760Z,4.50
2017-10-12T21:36:51.053Z,5.20
2017-10-12T21:39:18.346Z,4.00
2017-10-12T21:41:45.635Z,3.90
2017-10-12T21:44:12.890Z,4.47
2017-10-12T21:46:40.182Z,4.50
2017-10-12T21:49:07.442Z,4.47
2017-10-12T21:51:34.730Z,5.87
2017-10-12T21:54:02.044Z,4.57
2017-10-12T21:56:29.307Z,5.83
2017-10-12T21:58:56.563Z,4.10
2017-10-12T22:01:23.853Z,5.20
2017-10-12T22:03:51.115Z,4.87
2017-10-12T22:06:18.407Z,5.23
2017-10-12T22:08:45.698Z,4.53
2017-10-12T22:11:12.979Z,4.10
2017-10-12T22:13:40.276Z,5.07
2017-10-12T22:16:07.543Z,5.10
2017-10-12T22:18:34.819Z,6.10
2017-10-12T22:21:02.105Z,5.70
2017-10-12T22:23:29.376Z,5.33
2017-10-12T22:25:56.643Z,5.30
2017-10-12T22:28:23.941Z,4.87
2017-10-12T22:30:51.199Z,4.80
2017-10-12T22:33:18.494Z,5.50
2017-10-12T22:35:45.758Z,4.33
2017-10-12T22:38:13.023Z,4.60
2017-10-12T22:40:40.302Z,5.10
2017-10-12T22:43:07.568Z,4.73
2017-10-12T22:45:34.862Z,4.73
2017-10-12T22:48:02.149Z,5.60
2017-10-12T22:50:29.418Z,5.47
2017-10-12T22:52:56.718Z,4.50
2017-10-12T22:55:23.970Z,4.70
2017-10-12T22:57:51.230Z,4.70
2017-10-12T23:00:18.523Z,4.97
2017-10-12T23:02:45.830Z,4.90
2017-10-12T23:05:13.098Z,4.70
2017-10-12T23:07:40.358Z,4.60
2017-10-12T23:10:07.652Z,5.30
2017-10-12T23:12:34.952Z,4.67
2017-10-12T23:15:02.210Z,5.23
2017-10-12T23:17:29.471Z,4.67
2017-10-12T23:19:56.755Z,4.37
2017-10-12T23:22:24.023Z,4.57
2017-10-12T23:24:51.311Z,4.50
2017-10-12T23:27:18.600Z,4.33
2017-10-12T23:29:45.858Z,5.07
2017-10-12T23:32:13.166Z,4.50
2017-10-12T23:34:40.423Z,4.17
2017-10-12T23:37:07.687Z,4.47
2017-10-12T23:39:34.989Z,5.10
2017-10-12T23:42:02.268Z,4.90
2017-10-12T23:44:29.526Z,5.07
2017-10-12T23:46:56.790Z,4.30
2017-10-12T23:49:24.078Z,4.57
2017-10-12T23:51:51.366Z,5.90
2017-10-12T23:54:18.685Z,6.53
2017-10-12T23:56:45.967Z,5.73
2017-10-12T23:59:13.304Z,6.30
